• Join FlightAware (Why Join?)
  • Login
  • US Flag 
03:53AM EDT


 

Airport Tracker/Info


-or-


 

Live Flight TrackerFlight Track Log ✈ AWE1454 ✈ 03-May-2013 ✈ KATL - KPHL

Flight Track Log - Related Links

Times and Time Zones

All times are in EDT time to prevent confusion due to time zone crossing. See the AWE1454 flight status page for this flight to view local times or setup timezone preferences in your user account.

Time Position Orientation Groundspeed Altitude Reporting Facility
EDT Latitude Longitude Course Direction KTS MPH feet Rate Location/Type
01:00PM 33.6333 -84.4000 53° Northeast 147 169 2,400  Level Atlanta TRACON
01:01PM 33.6333 -84.3333 90° East 203 234 3,800 2,160 Climbing Atlanta TRACON
01:02PM 33.8418 -84.1622 73° East  Level Estimated
01:02PM 33.6333 -84.2500 90° East 242 278 6,800  Level Atlanta TRACON
01:03PM 33.9100 -84.0734 54° Northeast  Level Estimated
01:03PM 33.6333 -84.1667 90° East 255 293 9,800  Level Atlanta TRACON
01:04PM 33.8923 -83.9542 100° East  Level FlightAware Approximate
01:04PM 33.6500 -84.0833 76° East 320 368 11,400  Level Atlanta TRACON
01:05PM 33.9610 -83.8659 48° Northeast  Level Estimated
01:05PM 33.6689 -84.0539 52° Northeast 353 406 12,100  Level Atlanta Center
01:06PM 34.0297 -83.7774 53° Northeast  Level Estimated
01:06PM 33.7400 -83.9664 46° Northeast 371 427 14,000  Level Atlanta Center
01:07PM 33.8108 -83.8739 47° Northeast 371 427 16,100 1,800 Climbing Atlanta Center
01:09PM 33.9522 -83.6756 49° Northeast 385 443 19,500 1,620 Climbing Atlanta Center
01:10PM 34.0231 -83.5700 51° Northeast 398 458 21,100 1,500 Climbing Atlanta Center
01:11PM 34.0914 -83.4594 53° Northeast 403 464 22,500 1,320 Climbing Atlanta Center
01:12PM 34.1700 -83.3358 52° Northeast 419 482 23,800 1,020 Climbing Atlanta Center
01:13PM 34.2444 -83.2144 53° Northeast 425 489 24,600 900 Climbing Atlanta Center
01:14PM 34.3208 -83.0956 52° Northeast 435 501 25,700 1,020 Climbing Atlanta Center
01:15PM 34.3969 -82.9689 54° Northeast 452 520 26,700 1,020 Climbing Atlanta Center
01:16PM 34.4772 -82.8469 51° Northeast 459 528 27,800 960 Climbing Atlanta Center
01:17PM 34.5531 -82.7222 54° Northeast 469 540 28,700 600 Climbing Atlanta Center
01:18PM 34.6289 -82.5897 55° Northeast 469 540 29,000 120 Climbing Atlanta Center
01:19PM 34.7006 -82.4775 52° Northeast 464 534 29,000  Level Atlanta Center
01:20PM 34.7781 -82.3519 53° Northeast 464 534 29,000  Level Atlanta Center
01:21PM 34.8536 -82.2239 54° Northeast 464 534 29,000  Level Atlanta Center
01:22PM 34.9411 -82.0853 52° Northeast 464 534 29,000  Level Atlanta Center
01:23PM 35.0203 -81.9514 54° Northeast 470 541 29,000  Level Atlanta Center
01:24PM 35.0931 -81.8175 56° Northeast 470 541 29,000  Level Atlanta Center
01:25PM 35.1636 -81.6836 57° Northeast 477 549 29,000  Level Atlanta Center
01:26PM 35.2361 -81.5467 57° Northeast 472 543 29,000  Level Atlanta Center
01:27PM 35.3064 -81.4122 57° Northeast 472 543 29,000  Level Atlanta Center
01:28PM 35.3764 -81.2778 57° Northeast 472 543 29,000  Level Atlanta Center
01:29PM 35.4461 -81.1375 59° Northeast 472 543 29,000  Level Atlanta Center
01:30PM 35.5200 -81.0022 56° Northeast 477 549 29,000  Level Atlanta Center
01:31PM 35.5897 -80.8644 58° Northeast 477 549 29,000  Level Atlanta Center
01:32PM 35.6592 -80.7314 57° Northeast 470 541 29,000  Level Atlanta Center
01:33PM 35.7306 -80.5981 57° Northeast 470 541 29,000  Level Atlanta Center
01:34PM 35.7975 -80.4647 58° Northeast 470 541 29,000  Level Atlanta Center
01:35PM 35.8686 -80.3231 58° Northeast 470 541 29,000  Level Atlanta Center
01:37PM 36.0331 -80.0047 57° Northeast 467 537 29,000  Level Washington Center
01:38PM 36.1067 -79.8725 55° Northeast 461 531 29,000  Level Washington Center
01:39PM 36.1803 -79.7403 55° Northeast 468 539 29,000  Level Washington Center
01:40PM 36.2531 -79.6256 52° Northeast 468 539 29,000  Level Washington Center
01:41PM 36.3469 -79.4936 49° Northeast 468 539 29,000  Level Washington Center
01:42PM 36.4236 -79.3867 48° Northeast 468 539 29,000  Level Washington Center
01:43PM 36.5108 -79.2642 48° Northeast 468 539 29,000  Level Washington Center
01:44PM 36.5978 -79.1442 48° Northeast 468 539 29,000  Level Washington Center
01:45PM 36.6914 -79.0136 48° Northeast 463 533 29,000  Level Washington Center
01:46PM 36.7781 -78.8956 47° Northeast 463 533 29,000  Level Washington Center
01:47PM 36.8628 -78.7747 49° Northeast 463 533 29,000  Level Washington Center
01:48PM 36.9472 -78.6558 49° Northeast 458 527 29,000  Level Washington Center
01:49PM 36.9788 -78.6055 49° Northeast  Level FlightAware Approximate
01:49PM 37.0272 -78.5472 47° Northeast 458 527 29,000  Level Washington Center
01:50PM 37.1094 -78.4281 49° Northeast 453 521 29,000  Level Washington Center
01:51PM 37.1978 -78.3086 47° Northeast 453 521 29,000  Level Washington Center
01:52PM 37.2903 -78.1736 49° Northeast 453 521 29,000  Level Washington Center
01:53PM 37.3719 -78.0561 49° Northeast 453 521 29,000  Level Washington Center
01:54PM 37.4558 -77.9333 49° Northeast 453 521 29,000  Level Washington Center
01:55PM 37.5458 -77.8156 46° Northeast 453 521 29,000  Level Washington Center
01:56PM 37.6456 -77.7214 37° Northeast 448 516 29,000  Level Washington Center
01:57PM 37.7494 -77.6272 36° Northeast 448 516 29,000  Level Washington Center
01:58PM 37.8508 -77.5353 36° Northeast 448 516 29,000 -600 Level Washington Center
01:59PM 37.9525 -77.4458 35° Northeast 448 516 27,800 -1,140 Descending Washington Center
02:00PM 38.0372 -77.3661 37° Northeast 437 503 26,700 -1,140 Descending Washington Center
02:01PM 38.1322 -77.2786 36° Northeast 426 490 25,600 -1,140 Descending Washington Center
02:02PM 38.2250 -77.1933 36° Northeast 421 484 24,500 -840 Descending Washington Center
02:03PM 38.3158 -77.1108 35° Northeast 414 476 24,000 -300 Descending Washington Center
02:04PM 38.4125 -77.0544 25° Northeast 381 438 24,000  Level Washington Center
02:05PM 38.5169 -77.0272 12° North 381 438 24,000  Level Washington Center
02:06PM 38.6197 -76.9919 15° North 381 438 24,000 -360 Level Washington Center
02:07PM 38.6689 -76.8706 63° Northeast 358 412 23,300 -1,200 Descending Washington Center
02:08PM 38.7036 -76.7408 71° East 353 406 21,600 -1,680 Descending Washington Center
02:09PM 38.7339 -76.6003 75° East 376 433 20,000 -840 Descending Washington Center
02:10PM 38.7600 -76.4647 76° East 386 444 20,000 -600 Level Washington Center
02:11PM 38.7881 -76.3267 75° East 391 450 18,900 -1,200 Descending Washington Center
02:12PM 38.8139 -76.2017 75° East 391 450 17,600 -1,680 Descending Washington Center
02:13PM 38.8456 -76.0714 73° East 381 438 15,600 -1,380 Descending Washington Center
02:14PM 38.8711 -75.9542 74° East 361 415 14,900 -360 Descending Washington Center
02:15PM 38.9047 -75.8344 70° East 350 403 14,900 -660 Level Washington Center
02:16PM 38.9800 -75.7519 40° Northeast 334 384 13,600 -1,500 Descending Washington Center
02:17PM 39.0633 -75.6825 33° Northeast 334 384 12,000 -1,620 Descending Washington Center
02:18PM 39.1592 -75.6667 North 334 384 10,400 -840 Descending Washington Center
02:20PM 39.3500 -75.6000 15° North 275 316 9,300 -780 Descending Philadelphia TRACON
02:21PM 39.4167 -75.5333 38° Northeast 262 302 7,900 -1,200 Descending Philadelphia TRACON
02:22PM 39.4667 -75.4667 46° Northeast 256 295 7,000 -480 Descending Philadelphia TRACON
02:23PM 39.5000 -75.4167 49° Northeast 208 239 7,000 -60 Level Philadelphia TRACON
02:24PM 39.5333 -75.3500 57° Northeast 217 250 6,900 -480 Descending Philadelphia TRACON
02:25PM 39.5833 -75.3167 27° Northeast 211 243 6,000 -480 Descending Philadelphia TRACON
02:26PM 39.6500 -75.3333 349° North 222 255 6,000  Level Philadelphia TRACON
02:27PM 39.7000 -75.3667 333° Northwest 221 254 6,000  Level Philadelphia TRACON
02:28PM 39.7333 -75.4333 303° West 251 289 6,000 -360 Level Philadelphia TRACON
02:29PM 39.7167 -75.5167 255° West 227 261 5,300 -840 Descending Philadelphia TRACON
02:30PM 39.7000 -75.5833 252° West 202 232 4,400 -660 Descending Philadelphia TRACON
02:31PM 39.7500 -75.6167 333° Northwest 189 217 4,000 -240 Descending Philadelphia TRACON
02:32PM 39.8000 -75.5667 38° Northeast 180 207 4,000 -120 Level Philadelphia TRACON
02:33PM 39.8167 -75.5167 67° East 178 205 3,800 -600 Descending Philadelphia TRACON
02:34PM 39.8167 -75.4500 90° East 177 204 2,900 -960 Descending Philadelphia TRACON
02:35PM 39.8333 -75.4000 67° East 173 199 1,900 -1,020 Descending Philadelphia TRACON